Time;durP1;ratioP1;P1;durP2;ratioP2;P2;SDS_P1;SDS_P2;PMS_P1;PMS_P2;Temp;Humidity;BMP_temperature;BMP_pressure;BME280_temperature;BME280_humidity;BME280_pressure;Samples;Min_cycle;Max_cycle;Signal;HPM_P1;HPM_P2
2022/05/15 00:02:16;;;;;;;;;7.50;6.50;;;;;21.13;33.16;101231.81;4954480;28;45377;-45
2022/05/15 00:04:42;;;;;;;;;6.25;5.75;;;;;21.12;33.27;101225.59;4980056;28;46014;-43
2022/05/15 00:07:07;;;;;;;;;5.25;4.00;;;;;21.08;33.21;101229.34;4980957;28;45319;-43
2022/05/15 00:09:33;;;;;;;;;8.00;6.25;;;;;21.06;33.83;101229.44;4961148;28;45326;-41
2022/05/15 00:11:58;;;;;;;;;4.25;4.25;;;;;21.04;33.45;101222.44;4973595;28;45465;-47
2022/05/15 00:14:24;;;;;;;;;2.00;2.00;;;;;21.01;33.34;101218.13;4981092;28;45336;-43
2022/05/15 00:16:49;;;;;;;;;5.50;5.50;;;;;20.96;33.99;101217.50;4981315;28;45220;-42
2022/05/15 00:19:15;;;;;;;;;5.75;5.75;;;;;20.97;33.44;101213.00;4980843;28;45776;-43
2022/05/15 00:21:40;;;;;;;;;6.25;4.75;;;;;20.94;33.90;101206.00;4981133;28;45489;-44
2022/05/15 00:24:06;;;;;;;;;6.00;5.00;;;;;20.91;33.37;101206.19;4975432;28;46365;-43
2022/05/15 00:26:34;;;;;;;;;5.25;4.00;;;;;20.88;33.58;101203.66;4973790;28;45324;-43
2022/05/15 00:29:00;;;;;;;;;4.25;4.25;;;;;20.85;34.15;101201.16;4963868;28;45355;-42
2022/05/15 00:31:26;;;;;;;;;8.50;6.00;;;;;20.83;33.35;101203.91;4963354;28;45795;-42
2022/05/15 00:33:52;;;;;;;;;5.25;5.25;;;;;20.81;33.81;101212.94;4980992;28;45366;-41
2022/05/15 00:36:18;;;;;;;;;6.75;5.75;;;;;20.76;34.16;101195.31;4980781;28;45386;-41
2022/05/15 00:38:43;;;;;;;;;5.25;5.25;;;;;20.76;34.06;101192.63;4980893;28;45378;-44
2022/05/15 00:41:10;;;;;;;;;5.50;5.25;;;;;20.75;34.21;101201.63;4980698;28;45497;-43
2022/05/15 00:43:46;;;;;;;;;6.75;5.50;;;;;20.74;34.22;101202.56;4979548;28;46170;-42
2022/05/15 00:46:18;;;;;;;;;4.50;2.50;;;;;20.72;34.30;101216.94;4980659;28;45413;-41
2022/05/15 00:48:45;;;;;;;;;6.50;5.00;;;;;20.69;33.76;101209.91;4980677;28;45394;-42
2022/05/15 00:51:22;;;;;;;;;6.25;5.50;;;;;20.66;34.23;101202.03;4980115;28;45192;-43
2022/05/15 00:53:51;;;;;;;;;5.25;5.25;;;;;20.66;33.82;101198.50;4980753;28;46265;-43
2022/05/15 00:56:20;;;;;;;;;5.00;3.25;;;;;20.61;33.99;101185.38;4980349;28;45369;-46
2022/05/15 00:58:52;;;;;;;;;6.00;4.75;;;;;20.58;34.15;101178.38;4980717;28;45231;-43
2022/05/15 01:01:18;;;;;;;;;5.25;5.25;;;;;20.59;34.60;101176.56;4980372;28;45399;-41
2022/05/15 01:03:45;;;;;;;;;8.00;5.50;;;;;20.56;34.51;101180.25;4963064;28;45395;-41
2022/05/15 01:06:10;;;;;;;;;6.00;5.00;;;;;20.51;34.61;101168.94;4980255;28;45279;-42
2022/05/15 01:08:36;;;;;;;;;6.25;6.25;;;;;20.52;34.68;101177.81;4970772;28;45357;-44
2022/05/15 01:11:08;;;;;;;;;6.25;5.00;;;;;20.48;33.80;101169.09;4977823;28;45252;-43
2022/05/15 01:13:36;;;;;;;;;5.00;5.00;;;;;20.49;34.13;101172.63;4962721;28;46325;-45
2022/05/15 01:16:02;;;;;;;;;7.00;6.00;;;;;20.44;34.17;101171.06;4980213;28;45240;-42
2022/05/15 01:18:32;;;;;;;;;7.00;5.50;;;;;20.41;34.58;101171.19;4980321;28;45255;-42
2022/05/15 01:20:59;;;;;;;;;4.25;4.25;;;;;20.39;34.33;101166.84;4979992;28;45505;-43
2022/05/15 01:23:25;;;;;;;;;4.25;4.25;;;;;20.39;34.36;101161.53;4980145;28;47104;-41
2022/05/15 01:25:51;;;;;;;;;5.00;5.00;;;;;20.36;34.74;101154.53;4967275;28;45233;-43
2022/05/15 01:28:20;;;;;;;;;7.75;5.00;;;;;20.36;34.37;101159.00;4974377;28;45321;-42
2022/05/15 01:30:49;;;;;;;;;6.75;5.00;;;;;20.34;34.82;101155.53;4980224;28;45470;-43
2022/05/15 01:33:14;;;;;;;;;5.50;3.25;;;;;20.33;34.52;101167.19;4967063;28;46149;-42
2022/05/15 01:35:40;;;;;;;;;3.75;3.25;;;;;20.27;34.55;101150.50;4979912;28;45317;-41
2022/05/15 01:38:07;;;;;;;;;5.00;3.75;;;;;20.27;34.87;101152.31;4980266;28;45235;-44
2022/05/15 01:40:34;;;;;;;;;4.25;4.00;;;;;20.24;34.50;101147.16;4971746;28;45417;-46
2022/05/15 01:43:00;;;;;;;;;7.00;7.00;;;;;20.24;34.87;101153.34;4973608;28;46399;-43
2022/05/15 01:45:25;;;;;;;;;11.75;10.00;;;;;20.22;34.55;101138.34;4969009;28;45371;-40
2022/05/15 01:47:51;;;;;;;;;6.50;6.00;;;;;20.22;34.55;101138.34;4980109;28;45347;-41
2022/05/15 01:50:16;;;;;;;;;2.50;2.50;;;;;20.22;34.99;101138.34;4980087;28;45481;-40
2022/05/15 01:52:42;;;;;;;;;4.00;4.00;;;;;20.20;35.02;101134.88;4979563;28;45342;-44
2022/05/15 01:55:08;;;;;;;;;4.25;4.25;;;;;20.19;34.62;101127.81;4979989;28;45378;-43
2022/05/15 01:57:33;;;;;;;;;4.50;4.50;;;;;20.17;35.04;101135.88;4979999;28;45351;-42
2022/05/15 01:59:59;;;;;;;;;5.00;5.00;;;;;20.14;34.48;101136.91;4979881;28;45295;-42
2022/05/15 02:02:24;;;;;;;;;4.50;4.50;;;;;20.16;35.01;101141.31;4979740;28;46214;-43
2022/05/15 02:04:50;;;;;;;;;6.25;5.00;;;;;20.13;35.14;101137.84;4962358;28;45316;-44
2022/05/15 02:07:15;;;;;;;;;4.75;4.00;;;;;20.13;35.01;101136.97;4962333;28;45244;-43
2022/05/15 02:09:41;;;;;;;;;5.75;4.00;;;;;20.11;35.12;101122.84;4978650;28;46355;-41
2022/05/15 02:12:07;;;;;;;;;1.75;1.75;;;;;20.10;34.77;101130.00;4962151;28;47273;-41
2022/05/15 02:14:33;;;;;;;;;2.00;2.00;;;;;20.09;35.21;101116.75;4979644;28;45263;-41
2022/05/15 02:16:58;;;;;;;;;5.50;5.00;;;;;20.06;35.26;101109.75;4979759;28;45184;-44
2022/05/15 02:19:24;;;;;;;;;5.00;4.00;;;;;20.05;34.77;101102.69;4966132;28;45315;-41
2022/05/15 02:21:49;;;;;;;;;8.25;5.75;;;;;20.04;35.60;101102.75;4979245;28;46273;-42
2022/05/15 02:24:15;;;;;;;;;5.00;5.00;;;;;20.04;35.25;101113.44;4979299;28;45327;-45
2022/05/15 02:26:40;;;;;;;;;5.50;4.00;;;;;20.03;34.86;101109.88;4969855;28;45331;-45
2022/05/15 02:29:07;;;;;;;;;5.00;4.75;;;;;20.02;35.12;101100.13;4962464;28;45338;-42
2022/05/15 02:31:32;;;;;;;;;4.75;4.00;;;;;20.01;34.96;101095.75;4976354;28;45435;-45
2022/05/15 02:34:01;;;;;;;;;5.00;4.00;;;;;20.00;34.92;101094.03;4982688;28;45382;-43
2022/05/15 02:36:27;;;;;;;;;4.25;4.25;;;;;19.96;35.11;101087.09;4982669;28;45430;-44
2022/05/15 02:38:53;;;;;;;;;4.00;4.00;;;;;19.94;35.20;101095.19;4982708;28;45486;-42
2022/05/15 02:41:18;;;;;;;;;7.25;3.00;;;;;19.95;35.03;101098.72;4982465;28;45347;-44
2022/05/15 02:43:43;;;;;;;;;5.50;4.75;;;;;19.96;35.36;101100.44;4982966;28;45231;-41
2022/05/15 02:46:09;;;;;;;;;5.00;5.00;;;;;19.94;35.48;101097.84;4982869;28;45511;-45
2022/05/15 02:51:18;;;;;;;;;3.75;3.75;;;;;19.92;35.57;101096.19;4982145;28;45625;-41
2022/05/15 02:53:45;;;;;;;;;6.00;4.50;;;;;19.91;35.07;101094.47;4978000;28;45352;-42
2022/05/15 02:56:16;;;;;;;;;3.50;3.50;;;;;19.91;35.63;101094.47;4978874;28;45358;-41
2022/05/15 02:58:41;;;;;;;;;7.25;5.50;;;;;19.91;35.15;101102.47;4972435;28;45226;-47
2022/05/15 03:01:07;;;;;;;;;5.00;5.00;;;;;19.88;35.43;101098.13;4979266;28;45970;-43
2022/05/15 03:03:32;;;;;;;;;4.00;4.00;;;;;19.89;35.76;101110.53;4981154;28;45253;-43
2022/05/15 03:05:58;;;;;;;;;5.00;4.50;;;;;19.88;35.61;101097.28;4982078;28;45229;-42
2022/05/15 03:08:24;;;;;;;;;4.00;3.00;;;;;19.88;35.25;101102.63;4974106;28;45388;-43
2022/05/15 03:10:50;;;;;;;;;9.25;6.75;;;;;19.86;35.45;101101.81;4977796;28;45340;-43
2022/05/15 03:13:16;;;;;;;;;8.50;7.00;;;;;19.87;35.48;101103.56;4982285;28;45431;-43
2022/05/15 03:15:41;;;;;;;;;11.00;11.00;;;;;19.85;35.05;101098.28;4980963;28;45250;-43
2022/05/15 03:18:06;;;;;;;;;5.75;3.25;;;;;19.85;35.16;101100.97;4982264;28;45346;-41
2022/05/15 03:20:32;;;;;;;;;6.00;4.75;;;;;19.85;35.13;101100.09;4981436;28;47348;-42
2022/05/15 03:22:59;;;;;;;;;4.75;4.75;;;;;19.83;35.58;101096.66;4982395;28;45295;-43
2022/05/15 03:25:26;;;;;;;;;6.75;6.00;;;;;19.80;35.25;101094.97;4982068;28;45311;-44
2022/05/15 03:27:52;;;;;;;;;5.00;4.50;;;;;19.80;35.32;101090.47;4979372;28;45440;-42
2022/05/15 03:30:18;;;;;;;;;5.75;5.00;;;;;19.79;35.32;101093.22;4960528;28;46354;-44
2022/05/15 03:32:44;;;;;;;;;6.00;4.00;;;;;19.78;35.57;101086.16;4982159;28;45433;-46
2022/05/15 03:35:11;;;;;;;;;6.75;5.00;;;;;19.77;35.49;101085.31;4981898;28;45495;-41
2022/05/15 03:37:37;;;;;;;;;6.25;4.75;;;;;19.75;35.26;101087.16;4981088;28;45356;-43
2022/05/15 03:40:02;;;;;;;;;5.75;4.75;;;;;19.72;35.75;101081.13;4981399;28;45783;-42
2022/05/15 03:42:28;;;;;;;;;6.25;6.25;;;;;19.71;35.25;101084.72;4981784;28;45332;-46
2022/05/15 03:44:53;;;;;;;;;4.50;3.50;;;;;19.69;35.71;101084.78;4968815;28;45279;-43
2022/05/15 03:47:19;;;;;;;;;6.00;3.25;;;;;19.67;35.98;101083.97;4981863;28;45244;-42
2022/05/15 03:49:45;;;;;;;;;3.50;3.50;;;;;19.65;36.00;101081.41;4981692;28;45237;-43
2022/05/15 03:52:11;;;;;;;;;5.00;5.00;;;;;19.63;35.90;101083.28;4981328;28;45222;-44
2022/05/15 03:54:36;;;;;;;;;4.00;3.00;;;;;19.61;35.85;101071.81;4968611;28;45148;-42
2022/05/15 03:57:03;;;;;;;;;7.75;6.00;;;;;19.59;35.86;101070.16;4981667;28;45296;-42
2022/05/15 03:59:32;;;;;;;;;5.75;4.50;;;;;19.59;35.66;101064.84;4981223;28;46298;-46
2022/05/15 04:01:59;;;;;;;;;6.50;6.00;;;;;19.56;35.64;101064.97;4981622;28;45365;-41
2022/05/15 04:04:24;;;;;;;;;6.50;5.50;;;;;19.53;35.81;101059.78;4981454;28;45354;-43
2022/05/15 04:06:50;;;;;;;;;5.25;5.00;;;;;19.51;35.96;101059.00;4980004;28;45486;-43
2022/05/15 04:09:16;;;;;;;;;5.50;4.00;;;;;19.48;36.15;101049.34;4968625;28;45342;-46
2022/05/15 04:11:42;;;;;;;;;4.50;4.50;;;;;19.45;36.21;101058.34;4981586;28;46322;-43
2022/05/15 04:14:08;;;;;;;;;3.50;3.50;;;;;19.43;35.96;101054.91;4981456;28;45165;-45
2022/05/15 04:16:33;;;;;;;;;5.00;3.75;;;;;19.41;36.08;101062.09;4981362;28;45227;-41
2022/05/15 04:18:58;;;;;;;;;7.00;5.00;;;;;19.39;36.01;101052.44;4970258;28;46157;-44
2022/05/15 04:21:25;;;;;;;;;10.00;8.25;;;;;19.37;36.03;101070.28;4979753;28;45440;-46
2022/05/15 04:23:51;;;;;;;;;5.50;3.25;;;;;19.35;36.12;101066.84;4981151;28;45540;-42
2022/05/15 04:26:17;;;;;;;;;6.50;5.25;;;;;19.29;36.11;101067.97;4981121;28;45277;-42
2022/05/15 04:28:42;;;;;;;;;5.00;4.25;;;;;19.29;36.09;101060.84;4979689;28;46367;-43
2022/05/15 04:31:08;;;;;;;;;6.75;5.50;;;;;19.29;35.99;101066.16;4981118;28;45375;-45
2022/05/15 04:33:34;;;;;;;;;5.25;5.25;;;;;19.27;36.09;101059.19;4979795;28;45694;-41
2022/05/15 04:36:00;;;;;;;;;3.00;3.00;;;;;19.23;35.96;101053.16;4981030;28;45332;-42
2022/05/15 04:38:26;;;;;;;;;3.00;3.00;;;;;19.22;36.07;101046.09;4980626;28;45551;-43
2022/05/15 04:40:52;;;;;;;;;4.50;4.50;;;;;19.20;36.36;101036.44;4980970;28;45177;-44
2022/05/15 04:43:17;;;;;;;;;5.00;5.00;;;;;19.20;36.27;101041.78;4979623;28;45469;-48
2022/05/15 04:45:43;;;;;;;;;4.00;4.00;;;;;19.16;36.25;101046.38;4981104;28;45238;-44
2022/05/15 04:48:10;;;;;;;;;4.00;4.00;;;;;19.14;36.54;101043.78;4980039;28;45329;-43
2022/05/15 04:50:37;;;;;;;;;5.00;3.75;;;;;19.14;36.31;101049.09;4980064;28;45394;-42
2022/05/15 04:53:03;;;;;;;;;5.00;5.00;;;;;19.13;36.12;101051.81;4980658;28;45342;-41
2022/05/15 04:55:29;;;;;;;;;3.00;3.00;;;;;19.12;36.16;101053.63;4980677;28;45392;-45
2022/05/15 04:57:54;;;;;;;;;4.00;4.00;;;;;19.11;36.28;101053.72;4980358;28;47123;-41
2022/05/15 05:00:20;;;;;;;;;6.50;4.00;;;;;19.10;36.21;101046.66;4979433;28;45320;-43
2022/05/15 05:02:45;;;;;;;;;4.00;4.00;;;;;19.11;36.47;101067.03;4979441;28;45318;-43
2022/05/15 05:05:11;;;;;;;;;4.75;3.75;;;;;19.11;36.30;101067.03;4980591;28;45319;-42
2022/05/15 05:07:37;;;;;;;;;3.00;3.00;;;;;19.09;36.22;101064.41;4978401;28;45369;-43
2022/05/15 05:10:03;;;;;;;;;4.25;3.50;;;;;19.08;36.04;101070.69;4952429;28;45320;-42
2022/05/15 05:12:29;;;;;;;;;7.75;4.00;;;;;19.08;36.52;101072.47;4980407;28;45386;-42
2022/05/15 05:14:54;;;;;;;;;8.50;8.50;;;;;19.07;36.56;101076.06;4980408;28;45597;-44
2022/05/15 05:17:20;;;;;;;;;3.75;3.25;;;;;19.06;36.70;101077.88;4980281;28;46240;-43
2022/05/15 05:19:45;;;;;;;;;2.75;0.00;;;;;19.06;36.51;101080.53;4980181;28;45403;-44
2022/05/15 05:22:10;;;;;;;;;2.75;2.75;;;;;19.07;36.59;101078.72;4980188;28;45394;-41
2022/05/15 05:24:36;;;;;;;;;4.25;4.25;;;;;19.06;36.45;101077.03;4978976;28;45487;-42
2022/05/15 05:27:01;;;;;;;;;4.25;4.25;;;;;19.03;36.56;101078.03;4980165;28;45270;-44
2022/05/15 05:29:27;;;;;;;;;3.00;3.00;;;;;19.08;36.63;101085.78;4973928;28;45250;-43
2022/05/15 05:31:53;;;;;;;;;4.00;4.00;;;;;19.09;36.52;101084.84;4979111;28;45537;-44
2022/05/15 05:34:19;;;;;;;;;5.00;4.50;;;;;19.09;36.52;101083.03;4979060;28;45563;-44
2022/05/15 05:36:44;;;;;;;;;5.00;5.00;;;;;19.11;36.64;101091.84;4979695;28;46131;-40
2022/05/15 05:39:10;;;;;;;;;6.00;5.00;;;;;19.12;36.74;101085.59;4980087;28;45309;-41
2022/05/15 05:41:35;;;;;;;;;5.00;5.00;;;;;19.14;36.41;101085.50;4980185;28;45493;-42
2022/05/15 05:44:00;;;;;;;;;4.25;4.00;;;;;19.15;36.90;101087.25;4980403;28;45228;-44
2022/05/15 05:46:27;;;;;;;;;4.75;4.75;;;;;19.16;36.84;101089.84;4980035;28;46430;-42
2022/05/15 05:48:53;;;;;;;;;4.00;4.00;;;;;19.17;36.88;101088.06;4980086;28;45456;-41
2022/05/15 05:51:19;;;;;;;;;5.50;3.75;;;;;19.20;36.94;101087.06;4962103;28;45263;-42
2022/05/15 05:53:44;;;;;;;;;5.25;4.50;;;;;19.17;36.82;101086.25;4979934;28;45382;-46
2022/05/15 05:56:10;;;;;;;;;5.25;5.00;;;;;19.22;36.98;101080.72;4979701;28;46062;-46
2022/05/15 05:58:37;;;;;;;;;5.25;5.25;;;;;19.24;36.88;101085.97;4962576;28;45415;-44
2022/05/15 06:01:03;;;;;;;;;3.50;3.50;;;;;19.25;36.63;101090.38;4981994;28;45367;-47
2022/05/15 06:06:12;;;;;;;;;4.00;4.00;;;;;19.29;36.99;101073.31;4982884;28;45420;-44
2022/05/15 06:08:37;;;;;;;;;5.50;3.00;;;;;19.31;37.00;101080.28;4973036;28;45302;-41
2022/05/15 06:11:03;;;;;;;;;4.25;4.00;;;;;19.34;36.70;101071.28;4980862;28;45299;-44
2022/05/15 06:13:28;;;;;;;;;4.50;4.00;;;;;19.37;36.98;101064.97;4983384;28;45342;-46
2022/05/15 06:15:55;;;;;;;;;5.50;3.75;;;;;19.40;36.70;101065.69;4982908;28;45335;-49
2022/05/15 06:18:20;;;;;;;;;3.75;3.75;;;;;19.42;36.90;101063.81;4982762;28;45236;-49
2022/05/15 06:20:46;;;;;;;;;6.00;5.00;;;;;19.43;36.56;101057.56;4982693;28;45312;-41
2022/05/15 06:23:11;;;;;;;;;4.50;4.50;;;;;19.48;36.69;101062.66;4983019;28;45325;-47
2022/05/15 06:25:36;;;;;;;;;6.00;5.00;;;;;19.51;36.93;101057.22;4982678;28;45289;-45
2022/05/15 06:28:04;;;;;;;;;4.00;3.00;;;;;19.54;36.62;101061.53;4979023;28;45279;-48
2022/05/15 06:30:30;;;;;;;;;6.00;4.00;;;;;19.58;36.57;101063.09;4968060;28;45366;-47
2022/05/15 06:32:55;;;;;;;;;4.00;4.00;;;;;19.59;36.83;101064.84;4982880;28;45402;-46
2022/05/15 06:35:21;;;;;;;;;7.75;3.75;;;;;19.63;36.72;101067.28;4982295;28;46002;-46
2022/05/15 06:37:47;;;;;;;;;18.00;15.25;;;;;19.71;36.82;101077.59;4982780;28;45291;-47
2022/05/15 06:40:14;;;;;;;;;5.25;5.00;;;;;19.76;36.53;101085.34;4969446;28;45350;-41
2022/05/15 06:42:40;;;;;;;;;3.75;3.25;;;;;19.80;36.67;101085.16;4965312;28;45466;-44
2022/05/15 06:45:06;;;;;;;;;6.75;5.75;;;;;19.86;37.06;101080.47;4982512;28;46276;-46
2022/05/15 06:47:32;;;;;;;;;4.00;4.00;;;;;19.90;36.70;101084.72;4982620;28;45302;-41
2022/05/15 06:49:58;;;;;;;;;4.25;4.00;;;;;19.93;36.81;101104.13;4981415;28;45233;-45
2022/05/15 06:52:24;;;;;;;;;4.25;4.25;;;;;19.97;37.09;101099.50;4982380;28;45221;-44
2022/05/15 06:54:49;;;;;;;;;6.25;4.75;;;;;20.02;36.59;101105.47;4982075;28;45367;-42
2022/05/15 06:57:31;;;;;;;;;4.25;4.00;;;;;20.05;36.73;101101.78;4982400;28;45366;-40
2022/05/15 07:00:07;;;;;;;;;5.25;3.75;;;;;20.11;37.00;101097.06;4981223;28;45423;-40
2022/05/15 07:02:33;;;;;;;;;4.00;4.00;;;;;20.18;36.46;101094.94;4982315;28;45393;-39
2022/05/15 07:04:58;;;;;;;;;3.75;3.75;;;;;20.22;36.98;101083.16;4982009;28;46008;-40
2022/05/15 07:07:24;;;;;;;;;6.00;3.25;;;;;20.28;36.65;101080.19;4981842;28;45268;-44
2022/05/15 07:09:50;;;;;;;;;4.00;4.00;;;;;20.34;36.54;101073.69;4969900;28;45472;-43
2022/05/15 07:12:16;;;;;;;;;6.25;4.75;;;;;20.38;36.50;101067.25;4980779;28;45489;-44
2022/05/15 07:14:42;;;;;;;;;7.25;5.00;;;;;20.46;37.04;101067.75;4982172;28;46056;-41
2022/05/15 07:17:08;;;;;;;;;4.25;4.25;;;;;20.54;36.45;101064.69;4982178;28;45319;-41
2022/05/15 07:19:33;;;;;;;;;6.00;6.00;;;;;20.60;36.51;101058.16;4981952;28;45289;-46
2022/05/15 07:21:59;;;;;;;;;6.00;4.00;;;;;20.66;36.66;101063.19;4981586;28;45596;-44
2022/05/15 07:24:25;;;;;;;;;4.00;3.00;;;;;20.71;36.92;101055.84;4981911;28;46059;-47
2022/05/15 07:26:51;;;;;;;;;5.00;5.00;;;;;20.79;36.55;101055.44;4981934;28;45238;-46
2022/05/15 07:29:18;;;;;;;;;6.25;5.00;;;;;20.85;36.71;101051.59;4980979;28;45367;-48
2022/05/15 07:31:44;;;;;;;;;6.25;5.50;;;;;20.90;36.34;101044.19;4978306;28;45434;-45
2022/05/15 07:34:10;;;;;;;;;2.50;0.25;;;;;20.95;36.80;101044.81;4971383;28;45427;-44
2022/05/15 07:36:36;;;;;;;;;7.25;7.25;;;;;21.02;36.36;101040.88;4981469;28;45276;-46
2022/05/15 07:39:02;;;;;;;;;8.25;4.75;;;;;21.07;36.44;101038.81;4981628;28;45252;-43
2022/05/15 07:41:28;;;;;;;;;4.00;4.00;;;;;21.11;36.80;101031.50;4981551;28;45473;-46
2022/05/15 07:43:54;;;;;;;;;5.25;5.25;;;;;21.16;36.73;101032.13;4981515;28;45335;-43
2022/05/15 07:46:19;;;;;;;;;6.00;6.00;;;;;21.20;36.32;101033.66;4978681;28;45452;-45
2022/05/15 07:48:45;;;;;;;;;6.00;5.00;;;;;21.24;36.28;101032.56;4979444;28;45365;-44
2022/05/15 07:51:10;;;;;;;;;4.25;3.00;;;;;21.28;36.34;101033.25;4978213;28;45294;-49
2022/05/15 07:53:38;;;;;;;;;6.25;4.00;;;;;21.32;36.47;101023.25;4978962;28;45684;-48
2022/05/15 07:56:09;;;;;;;;;5.75;4.25;;;;;21.37;36.17;101031.88;5000916;28;45307;-47
2022/05/15 07:58:38;;;;;;;;;3.25;3.25;;;;;21.39;36.20;101024.66;5001178;28;45330;-48
2022/05/15 08:01:05;;;;;;;;;3.00;3.00;;;;;21.42;36.72;101028.00;4985849;28;46160;-45
2022/05/15 08:03:38;;;;;;;;;3.50;3.00;;;;;21.45;36.50;101018.97;5000798;28;45409;-49
2022/05/15 08:08:50;;;;;;;;;6.00;4.50;;;;;21.51;36.40;101018.63;4997406;28;45532;-44
2022/05/15 08:11:15;;;;;;;;;3.00;3.00;;;;;21.51;36.31;101007.94;5000799;28;45390;-45
2022/05/15 08:13:41;;;;;;;;;3.25;3.00;;;;;21.56;36.63;101003.22;4986757;28;45461;-45
2022/05/15 08:16:08;;;;;;;;;4.50;4.50;;;;;21.56;36.01;100991.66;4987052;28;45285;-47
2022/05/15 08:24:03;;;;;;;;;4.25;4.25;;;;;21.67;36.39;100978.56;5000416;28;45668;-45
2022/05/15 08:26:30;;;;;;;;;4.75;4.00;;;;;21.75;36.50;100980.78;5000726;28;45421;-45
2022/05/15 08:28:56;;;;;;;;;5.75;5.00;;;;;21.81;36.38;100976.88;5000673;28;45331;-44
2022/05/15 08:31:24;;;;;;;;;7.25;6.00;;;;;21.87;36.43;100969.38;5000722;28;45571;-45
2022/05/15 08:33:51;;;;;;;;;4.25;3.50;;;;;21.94;36.41;100967.19;5000478;28;47070;-46
2022/05/15 08:36:17;;;;;;;;;3.00;3.00;;;;;22.02;36.17;100964.91;4982649;28;45334;-46
2022/05/15 08:38:45;;;;;;;;;5.25;4.00;;;;;22.12;36.45;100967.06;5000409;28;45430;-47
2022/05/15 08:41:29;;;;;;;;;3.00;3.00;;;;;22.21;36.18;100966.50;5000531;28;45306;-47
2022/05/15 08:43:58;;;;;;;;;6.00;5.00;;;;;22.32;36.43;100966.72;4999213;28;46224;-47
2022/05/15 08:46:31;;;;;;;;;4.50;4.25;;;;;22.42;35.87;100967.06;4999078;28;45241;-45
2022/05/15 08:49:06;;;;;;;;;4.00;4.00;;;;;22.52;36.53;100959.34;5000592;28;45497;-49
2022/05/15 08:51:33;;;;;;;;;3.50;3.00;;;;;22.61;36.40;100958.78;4999934;28;45469;-45
2022/05/15 08:54:02;;;;;;;;;2.00;2.00;;;;;22.69;36.32;100952.94;5000285;28;46333;-45
2022/05/15 08:56:33;;;;;;;;;3.00;3.00;;;;;22.80;36.21;100963.00;5000251;28;45425;-46
2022/05/15 08:59:06;;;;;;;;;3.00;3.00;;;;;22.87;36.14;100956.31;5000420;28;45278;-46
2022/05/15 09:01:33;;;;;;;;;2.00;2.00;;;;;22.98;35.82;100958.28;4983194;28;45383;-47
2022/05/15 09:03:58;;;;;;;;;2.25;1.75;;;;;23.08;35.86;100955.91;5000274;28;47358;-46
2022/05/15 09:06:37;;;;;;;;;3.00;3.00;;;;;23.18;35.97;100960.63;4998751;28;45815;-44
2022/05/15 09:09:12;;;;;;;;;2.75;2.75;;;;;23.28;36.01;100966.25;4985771;28;45358;-44
2022/05/15 09:11:44;;;;;;;;;4.00;2.25;;;;;23.39;35.72;100953.97;4980637;28;45400;-43
2022/05/15 09:14:41;;;;;;;;;2.00;2.00;;;;;23.48;35.73;100956.91;4980395;28;46230;-48
2022/05/15 09:17:32;;;;;;;;;3.00;3.00;;;;;23.61;35.56;100946.25;4936921;28;45531;-46
2022/05/15 09:20:00;;;;;;;;;2.50;2.50;;;;;23.69;35.55;100949.25;4980135;28;45239;-48
2022/05/15 09:22:30;;;;;;;;;1.75;1.50;;;;;23.82;35.27;100943.97;4979876;28;45528;-45
2022/05/15 09:24:56;;;;;;;;;2.75;2.75;;;;;23.92;35.56;100938.84;4980171;28;46133;-46
2022/05/15 09:27:27;;;;;;;;;1.00;1.00;;;;;24.02;35.14;100942.66;4980151;28;45260;-44
2022/05/15 09:29:52;;;;;;;;;5.00;4.00;;;;;24.11;34.57;100933.09;4980660;28;45308;-44
2022/05/15 09:32:44;;;;;;;;;2.00;1.75;;;;;24.22;34.79;100936.88;4979985;28;45290;-46
2022/05/15 09:35:13;;;;;;;;;2.50;2.00;;;;;24.31;34.82;100929.06;4976846;28;47271;-43
2022/05/15 09:43:38;;;;;;;;;3.00;2.00;;;;;24.63;34.13;100933.13;4982338;28;45374;-45
2022/05/15 09:46:16;;;;;;;;;2.00;2.00;;;;;24.75;34.02;100940.34;4983578;28;45275;-47
2022/05/15 09:49:00;;;;;;;;;4.00;4.00;;;;;24.87;33.65;100932.34;4983490;28;45528;-46
2022/05/15 09:51:30;;;;;;;;;2.00;2.00;;;;;24.98;33.68;100935.13;4981968;28;45220;-44
2022/05/15 09:53:57;;;;;;;;;2.00;2.00;;;;;25.10;33.54;100934.25;4983578;28;45363;-43
2022/05/15 09:56:32;;;;;;;;;1.00;1.00;;;;;25.22;33.06;100926.25;4983434;28;46180;-45
2022/05/15 09:59:05;;;;;;;;;0.00;0.00;;;;;25.35;33.04;100928.94;4983435;28;45346;-47
2022/05/15 10:01:37;;;;;;;;;5.25;3.00;;;;;25.49;32.80;100918.03;4983536;28;45465;-44
2022/05/15 10:04:28;;;;;;;;;2.75;2.75;;;;;25.63;32.86;100928.63;4983391;28;45325;-44
2022/05/15 10:06:57;;;;;;;;;2.50;2.25;;;;;25.74;32.30;100918.88;4959502;28;48399;-48
2022/05/15 10:09:23;;;;;;;;;2.00;2.00;;;;;25.84;32.68;100902.91;4984765;28;45373;-47
2022/05/15 10:11:55;;;;;;;;;4.00;2.50;;;;;25.96;33.01;100900.13;4983528;28;45220;-44
2022/05/15 10:14:34;;;;;;;;;3.00;3.00;;;;;26.10;32.21;100904.47;4983250;28;45270;-49
2022/05/15 10:17:01;;;;;;;;;3.00;3.00;;;;;26.25;32.21;100902.41;4983395;28;45481;-46
2022/05/15 10:19:39;;;;;;;;;3.75;3.00;;;;;26.42;32.14;100894.84;4982639;28;45362;-47
2022/05/15 10:22:20;;;;;;;;;3.00;3.00;;;;;26.60;32.24;100890.69;4982859;28;45366;-45
2022/05/15 10:24:47;;;;;;;;;3.00;1.75;;;;;26.81;32.11;100884.56;4979197;28;45465;-44
2022/05/15 10:27:20;;;;;;;;;1.00;1.00;;;;;27.02;32.84;100886.50;4982919;28;46398;-45
2022/05/15 10:30:14;;;;;;;;;4.25;2.75;;;;;27.30;32.37;100878.84;4978531;28;45469;-48
2022/05/15 10:32:50;;;;;;;;;3.00;3.00;;;;;27.56;32.29;100879.41;4982753;28;45364;-46
2022/05/15 10:35:17;;;;;;;;;2.75;1.25;;;;;27.82;32.31;100877.16;4982383;28;45472;-47
2022/05/15 10:37:48;;;;;;;;;4.75;2.50;;;;;28.11;32.08;100881.94;4982699;28;46197;-46
2022/05/15 10:40:26;;;;;;;;;1.50;1.50;;;;;28.41;32.09;100876.72;4965096;28;45534;-46
2022/05/15 10:43:29;;;;;;;;;2.25;1.25;;;;;28.76;31.86;100875.47;4982675;28;45339;-44
2022/05/15 10:46:05;;;;;;;;;3.00;3.00;;;;;29.14;31.64;100869.28;4979913;28;45762;-44
2022/05/15 10:49:02;;;;;;;;;4.75;3.75;;;;;29.51;31.72;100868.63;4983554;28;45445;-45
2022/05/15 10:52:11;;;;;;;;;3.75;3.75;;;;;29.92;31.53;100881.19;4982211;28;45375;-44
2022/05/15 10:57:47;;;;;;;;;2.75;1.25;;;;;30.67;31.66;100866.84;4981889;28;45392;-48
2022/05/15 11:00:35;;;;;;;;;2.50;1.25;;;;;31.01;30.88;100860.81;4982322;28;45557;-44
2022/05/15 11:03:17;;;;;;;;;2.00;2.00;;;;;31.33;30.74;100862.19;4980968;28;45213;-44
2022/05/15 11:06:33;;;;;;;;;2.00;2.00;;;;;31.75;30.40;100850.69;4977589;28;45439;-45
2022/05/15 11:09:27;;;;;;;;;2.25;2.00;;;;;32.13;30.30;100842.28;4921569;28;45447;-45
2022/05/15 11:12:07;;;;;;;;;3.75;3.75;;;;;32.49;30.56;100843.03;4960532;28;46282;-46
2022/05/15 11:14:42;;;;;;;;;4.75;3.75;;;;;32.81;29.35;100846.91;4979365;28;45283;-44
2022/05/15 11:17:16;;;;;;;;;2.00;2.00;;;;;33.04;29.58;100841.69;4979696;28;45264;-44
2022/05/15 11:19:46;;;;;;;;;1.75;1.75;;;;;33.21;29.32;100845.28;4971859;28;45533;-46
2022/05/15 11:22:45;;;;;;;;;1.00;1.00;;;;;33.35;28.92;100842.97;4981561;28;45325;-47
2022/05/15 11:25:27;;;;;;;;;2.00;2.00;;;;;33.40;28.66;100842.44;4981638;28;45458;-44
2022/05/15 11:28:02;;;;;;;;;2.00;2.00;;;;;33.44;28.51;100824.75;4981996;28;45465;-43
2022/05/15 11:30:35;;;;;;;;;3.25;3.00;;;;;33.50;28.20;100835.81;4979624;28;45381;-46
2022/05/15 11:33:25;;;;;;;;;0.75;0.75;;;;;33.48;28.04;100813.31;4979428;28;46158;-44
2022/05/15 11:36:13;;;;;;;;;2.00;2.00;;;;;33.57;28.10;100835.97;4979330;28;45398;-48
2022/05/15 11:39:03;;;;;;;;;2.75;2.75;;;;;33.53;27.39;100823.72;4995386;28;45314;-47
2022/05/15 11:41:34;;;;;;;;;2.50;2.50;;;;;33.51;27.48;100820.31;4984834;28;45350;-48
2022/05/15 11:44:09;;;;;;;;;1.75;1.75;;;;;33.46;27.34;100815.38;4971285;28;46930;-45
2022/05/15 11:46:51;;;;;;;;;1.00;1.00;;;;;33.48;27.03;100815.22;4981548;28;45518;-46
2022/05/15 11:49:26;;;;;;;;;1.75;1.75;;;;;33.44;27.29;100811.97;4971610;28;45268;-46
2022/05/15 11:52:03;;;;;;;;;2.00;2.00;;;;;33.40;27.05;100813.34;4981265;28;45180;-44
2022/05/15 11:54:45;;;;;;;;;2.00;2.00;;;;;33.37;26.81;100808.22;4981002;28;45615;-46
2022/05/15 11:57:43;;;;;;;;;1.75;1.75;;;;;33.33;26.69;100801.44;4981357;28;45312;-44